默认 日期 大小 文件数 浏览量 最新下载 xml
stefanie磁力链接相关资源由用户搜索指令自动获取,结果来源于网络,本站不存储任何资料,亦不承担任何责任,请于24小时内删除,搜索到673个磁力,用时1ms。
    {"RARBG.com.txt": 34, "ktr.xart.12.05.23.stefanie.like.a.dove.mov": 617930105, "ktr.xart.12.05.23.stefanie.like.a.dove.nfo": 6977}
创建时间: 2018-10-30 04:24:05 大小:589.31 MB 文件数量:3 热度:115 最近下载:2025-10-03 19:25:05
    {"wgp.16.03.20.leah.gotti.and.stefanie.joy.you.taste.so.good.mp4": 1630720397}
创建时间: 2018-10-30 05:21:12 大小:1.52 GB 文件数量:1 热度:615 最近下载:2025-10-04 21:46:06
    {"01 - Fire.mp3": 9890350, "14 - Old Flame.mp3": 8987566, "03 - Not At All.mp3": 7259308, "15 - Home To Me.mp3": 7002256, "09 - Ain't No Way.mp3": 7278109, "10 - Show Me The Way.mp3": 7511135, "13 - You Made Me See.mp3": 6774486, "04 - Coming Up For Air. ...
创建时间: 2018-10-30 06:17:48 大小:111.22 MB 文件数量:15 热度:20 最近下载:2025-08-01 19:32:09
    {"Torrent Downloaded From ProstyleX.com.nfo": 38, "StepMomLessons - Cathy Heaven, Stefanie Moon - Threes A Crowd.mp4": 297765228}
创建时间: 2018-10-30 08:26:22 大小:283.97 MB 文件数量:2 热度:115 最近下载:2025-09-25 13:56:02
    {"pic.jpg": 784698, "screens.jpg": 258786, "Nachtschwester Stefanie 3(1997).avi": 687152788}
创建时间: 2018-10-30 10:06:05 大小:656.32 MB 文件数量:3 热度:22 最近下载:2025-08-07 13:52:03
    {"fugli.nfo": 12200, "file_id.diz": 705, "RARBG.com.txt": 34, "RARBG.COM_XXX_BANNER.jpg": 517081, "stefaniejoyleahgottidc022116-wgpset_001.jpg": 1398010, "stefaniejoyleahgottidc022116-wgpset_002.jpg": 1302880, "stefaniejoyleahgottidc022116-wgpset_003.jpg": ...
创建时间: 2018-10-30 12:27:57 大小:126.15 MB 文件数量:111 热度:171 最近下载:2025-09-29 12:41:01
    {"RARBG.txt": 30, "ALSScan.18.07.17.Gina.Gerson.And.Stefanie.Moon.Stringkini.BTS.XXX.SD.MP4-KLEENEX.mp4": 250014667}
创建时间: 2018-10-31 20:54:41 大小:238.43 MB 文件数量:2 热度:46 最近下载:2025-08-07 08:44:01
    ... .jpg": 210388}, "107746 - Stefanie Gallery 392 amateur": {"ste029LIL_107746001.jpg ... .jpg": 281557}, "111004 - Stefanie Gallery 218 lingerie": {"ste029LIL_111004001.jpg ... .jpg": 246892}, "112124 - Stefanie Gallery 127 footfetish": {"ste029LIL_112124001.jpg ...
创建时间: 2018-10-31 21:23:59 大小:243.98 MB 文件数量:1084 热度:38 最近下载:2025-08-02 00:36:07
    {"pic.jpg": 39836, "stefanie sideways fuck and pussy point of view.wmv": 38648273}
创建时间: 2018-11-01 11:52:29 大小:36.9 MB 文件数量:2 热度:31 最近下载:2025-08-02 21:39:07
    {"RARBG.txt": 30, "ultrafilms.18.02.19.anie.darling.and.stefanie.moon.slutty.maid.mp4": 1521492099, "ultrafilms.18.02.19.anie.darling.and.stefanie.moon.slutty.maid.nfo": 5218}
创建时间: 2018-11-01 18:07:46 大小:1.42 GB 文件数量:3 热度:279 最近下载:2025-10-01 20:39:03
    ... -clean.jpg": 141683, "als_stringkini_gina-gerson--stefanie-moon_high_0001.jpg": 2422648, "als_stringkini_gina-gerson ...
创建时间: 2018-11-01 22:46:14 大小:487.79 MB 文件数量:264 热度:37 最近下载:2025-08-22 00:11:02
    {"RARBG.to.nfo": 32, "JoyMii - Stefanie Moon - Please My Hot Spot.mp4": 249808347}
创建时间: 2018-11-02 11:46:46 大小:238.24 MB 文件数量:2 热度:43 最近下载:2025-08-01 18:50:05
    {"RARBG.txt": 30, "wowg.18.05.18.stefanie.moon.anal.play.mp4": 1550668029, "wowg.18.05.18.stefanie.moon.anal.play.nfo": 5194}
创建时间: 2018-11-02 12:08:24 大小:1.44 GB 文件数量:3 热度:131 最近下载:2025-10-10 14:39:02
    {"TheArtPorn - Stephanie Moon aka Stefanie (Tempt, tease, tantalize) XXX NEW Released 07-05-2016.mp4": 111905997}
创建时间: 2018-11-02 13:08:05 大小:106.72 MB 文件数量:1 热度:56 最近下载:2025-08-14 21:10:02
    {"Sample": {"pbp.14.01.01.stefanie.knight.happy.new.year-sample.mp4": 50278196}, "RARBG.com.txt": 34, "pbp.14.01.01.stefanie.knight.happy.new.year.mp4": 225675353, "pbp.14.01.01.stefanie.knight.happy.new.year.nfo": 6988}
创建时间: 2018-11-03 15:44:45 大小:263.18 MB 文件数量:4 热度:115 最近下载:2025-10-13 23:43:02
    {"RARBG.txt": 30, "file_id.diz": 87, "gagball.nfo": 257, "sknighmex_0001.jpg": 2094276, "sknighmex_0002.jpg": 1446460, "sknighmex_0003.jpg": 1264208, "sknighmex_0004.jpg": 1436084, "sknighmex_0005.jpg": 1603613, "sknighmex_0006.jpg": 1303727, " ...
创建时间: 2018-11-04 04:37:10 大小:16.3 MB 文件数量:18 热度:48 最近下载:2025-05-15 17:47:02
    {"RARBG.to.nfo": 32, "StepMomLessons - Cathy Heaven, Stefanie Moon - Three's A Crowd.mp4": 297765228}
创建时间: 2018-11-04 08:10:53 大小:283.97 MB 文件数量:2 热度:38 最近下载:2025-08-03 08:03:03
    {"RARBG.txt": 30, "UltraFilms.18.03.13.Stefanie.Moon.And.Lika.Star.Pussies.Bliss.XXX.SD.MP4-KLEENEX.mp4": 333599889}
创建时间: 2018-11-04 10:18:59 大小:318.15 MB 文件数量:2 热度:273 最近下载:2025-10-15 00:07:02
    {"Stefanie Moon.mp4": 816835435, "SIS001影 ...
创建时间: 2018-11-04 22:02:50 大小:780.25 MB 文件数量:13 热度:41 最近下载:2025-07-30 23:34:02
    {"wowg.18.03.07.stefanie.moon.full.throttle[N1C].mp4": 1092238470}
创建时间: 2018-11-04 22:49:53 大小:1.02 GB 文件数量:1 热度:64 最近下载:2025-09-10 12:13:05